sensor_id;sensor_type;location;lat;lon;timestamp;P1;durP1;ratioP1;P2;durP2;ratioP2
58864;SDS011;45702;52.982;6.658;2022-12-10T00:00:26;126.65;;;38.53;;
58864;SDS011;45702;52.982;6.658;2022-12-10T00:02:52;128.45;;;37.40;;
58864;SDS011;45702;52.982;6.658;2022-12-10T00:05:19;123.22;;;37.58;;
58864;SDS011;45702;52.982;6.658;2022-12-10T00:07:45;133.82;;;38.78;;
58864;SDS011;45702;52.982;6.658;2022-12-10T00:10:11;133.23;;;38.80;;
58864;SDS011;45702;52.982;6.658;2022-12-10T00:12:37;132.07;;;39.63;;
58864;SDS011;45702;52.982;6.658;2022-12-10T00:15:03;133.18;;;39.63;;
58864;SDS011;45702;52.982;6.658;2022-12-10T00:17:29;137.65;;;40.35;;
58864;SDS011;45702;52.982;6.658;2022-12-10T00:19:55;127.50;;;37.17;;
58864;SDS011;45702;52.982;6.658;2022-12-10T00:22:21;135.90;;;40.83;;
58864;SDS011;45702;52.982;6.658;2022-12-10T00:24:48;138.75;;;40.30;;
58864;SDS011;45702;52.982;6.658;2022-12-10T00:27:14;137.63;;;41.15;;
58864;SDS011;45702;52.982;6.658;2022-12-10T00:29:40;133.48;;;39.45;;
58864;SDS011;45702;52.982;6.658;2022-12-10T00:32:07;124.88;;;37.60;;
58864;SDS011;45702;52.982;6.658;2022-12-10T00:34:33;132.77;;;39.92;;
58864;SDS011;45702;52.982;6.658;2022-12-10T00:36:59;127.72;;;39.50;;
58864;SDS011;45702;52.982;6.658;2022-12-10T00:39:25;128.95;;;39.35;;
58864;SDS011;45702;52.982;6.658;2022-12-10T00:41:51;133.15;;;39.50;;
58864;SDS011;45702;52.982;6.658;2022-12-10T00:44:17;135.07;;;41.13;;
58864;SDS011;45702;52.982;6.658;2022-12-10T00:46:43;131.40;;;39.50;;
58864;SDS011;45702;52.982;6.658;2022-12-10T00:49:09;133.18;;;39.30;;
58864;SDS011;45702;52.982;6.658;2022-12-10T00:51:36;134.98;;;38.65;;
58864;SDS011;45702;52.982;6.658;2022-12-10T00:54:14;131.18;;;39.83;;
58864;SDS011;45702;52.982;6.658;2022-12-10T00:57:03;135.95;;;40.95;;
58864;SDS011;45702;52.982;6.658;2022-12-10T01:00:07;143.15;;;41.42;;
58864;SDS011;45702;52.982;6.658;2022-12-10T01:03:04;140.93;;;40.90;;
58864;SDS011;45702;52.982;6.658;2022-12-10T01:06:33;136.77;;;40.70;;
58864;SDS011;45702;52.982;6.658;2022-12-10T01:09:09;137.77;;;39.20;;
58864;SDS011;45702;52.982;6.658;2022-12-10T01:11:36;144.00;;;41.78;;
58864;SDS011;45702;52.982;6.658;2022-12-10T01:14:03;143.75;;;39.55;;
58864;SDS011;45702;52.982;6.658;2022-12-10T01:16:29;136.50;;;40.35;;
58864;SDS011;45702;52.982;6.658;2022-12-10T01:18:56;140.13;;;40.10;;
58864;SDS011;45702;52.982;6.658;2022-12-10T01:21:23;141.15;;;42.10;;
58864;SDS011;45702;52.982;6.658;2022-12-10T01:23:50;135.50;;;39.08;;
58864;SDS011;45702;52.982;6.658;2022-12-10T01:26:18;138.23;;;40.25;;
58864;SDS011;45702;52.982;6.658;2022-12-10T01:28:44;142.63;;;40.55;;
58864;SDS011;45702;52.982;6.658;2022-12-10T01:31:13;143.50;;;41.58;;
58864;SDS011;45702;52.982;6.658;2022-12-10T01:33:39;136.60;;;39.33;;
58864;SDS011;45702;52.982;6.658;2022-12-10T01:36:10;142.70;;;41.15;;
58864;SDS011;45702;52.982;6.658;2022-12-10T01:38:37;144.00;;;39.58;;
58864;SDS011;45702;52.982;6.658;2022-12-10T01:41:03;156.40;;;42.30;;
58864;SDS011;45702;52.982;6.658;2022-12-10T01:43:47;145.80;;;41.40;;
58864;SDS011;45702;52.982;6.658;2022-12-10T01:46:14;155.82;;;44.67;;
58864;SDS011;45702;52.982;6.658;2022-12-10T01:48:40;151.57;;;42.95;;
58864;SDS011;45702;52.982;6.658;2022-12-10T01:51:06;148.05;;;45.88;;
58864;SDS011;45702;52.982;6.658;2022-12-10T01:53:32;158.93;;;44.45;;
58864;SDS011;45702;52.982;6.658;2022-12-10T01:55:58;154.82;;;43.17;;
58864;SDS011;45702;52.982;6.658;2022-12-10T01:58:25;133.88;;;39.75;;
58864;SDS011;45702;52.982;6.658;2022-12-10T02:03:24;152.90;;;43.65;;
58864;SDS011;45702;52.982;6.658;2022-12-10T02:05:56;151.27;;;42.25;;
58864;SDS011;45702;52.982;6.658;2022-12-10T02:08:37;156.70;;;42.58;;
58864;SDS011;45702;52.982;6.658;2022-12-10T02:11:09;143.18;;;40.67;;
58864;SDS011;45702;52.982;6.658;2022-12-10T02:13:40;149.38;;;40.70;;
58864;SDS011;45702;52.982;6.658;2022-12-10T02:16:57;155.30;;;43.40;;
58864;SDS011;45702;52.982;6.658;2022-12-10T02:18:57;141.20;;;40.42;;
58864;SDS011;45702;52.982;6.658;2022-12-10T02:21:30;154.30;;;44.03;;
58864;SDS011;45702;52.982;6.658;2022-12-10T02:24:03;161.45;;;42.10;;
58864;SDS011;45702;52.982;6.658;2022-12-10T02:26:33;164.18;;;44.90;;
58864;SDS011;45702;52.982;6.658;2022-12-10T02:31:33;167.85;;;46.33;;
58864;SDS011;45702;52.982;6.658;2022-12-10T02:34:01;153.90;;;43.42;;
58864;SDS011;45702;52.982;6.658;2022-12-10T02:36:31;138.95;;;40.33;;
58864;SDS011;45702;52.982;6.658;2022-12-10T02:38:57;165.70;;;46.93;;
58864;SDS011;45702;52.982;6.658;2022-12-10T02:41:26;154.98;;;43.75;;
58864;SDS011;45702;52.982;6.658;2022-12-10T02:43:54;154.82;;;42.83;;
58864;SDS011;45702;52.982;6.658;2022-12-10T02:48:48;152.48;;;43.97;;
58864;SDS011;45702;52.982;6.658;2022-12-10T02:51:15;170.93;;;45.53;;
58864;SDS011;45702;52.982;6.658;2022-12-10T02:53:42;162.98;;;45.20;;
58864;SDS011;45702;52.982;6.658;2022-12-10T02:56:30;162.93;;;45.70;;
58864;SDS011;45702;52.982;6.658;2022-12-10T02:59:15;166.00;;;47.55;;
58864;SDS011;45702;52.982;6.658;2022-12-10T03:04:14;178.43;;;47.30;;
58864;SDS011;45702;52.982;6.658;2022-12-10T03:06:42;177.88;;;46.90;;
58864;SDS011;45702;52.982;6.658;2022-12-10T03:09:19;170.35;;;46.97;;
58864;SDS011;45702;52.982;6.658;2022-12-10T03:11:47;174.95;;;48.38;;
58864;SDS011;45702;52.982;6.658;2022-12-10T03:14:19;172.00;;;47.30;;
58864;SDS011;45702;52.982;6.658;2022-12-10T03:16:49;188.63;;;48.05;;
58864;SDS011;45702;52.982;6.658;2022-12-10T03:19:16;173.18;;;47.22;;
58864;SDS011;45702;52.982;6.658;2022-12-10T03:21:43;171.48;;;45.70;;
58864;SDS011;45702;52.982;6.658;2022-12-10T03:24:10;183.55;;;46.83;;
58864;SDS011;45702;52.982;6.658;2022-12-10T03:26:37;180.32;;;46.72;;
58864;SDS011;45702;52.982;6.658;2022-12-10T03:29:06;178.80;;;47.10;;
58864;SDS011;45702;52.982;6.658;2022-12-10T03:31:33;172.77;;;46.78;;
58864;SDS011;45702;52.982;6.658;2022-12-10T03:34:00;177.68;;;47.42;;
58864;SDS011;45702;52.982;6.658;2022-12-10T03:36:27;172.52;;;46.08;;
58864;SDS011;45702;52.982;6.658;2022-12-10T03:38:53;176.73;;;47.58;;
58864;SDS011;45702;52.982;6.658;2022-12-10T03:41:20;186.77;;;46.90;;
58864;SDS011;45702;52.982;6.658;2022-12-10T03:43:50;178.65;;;46.67;;
58864;SDS011;45702;52.982;6.658;2022-12-10T03:46:20;179.02;;;47.25;;
58864;SDS011;45702;52.982;6.658;2022-12-10T03:48:47;187.02;;;47.17;;
58864;SDS011;45702;52.982;6.658;2022-12-10T03:51:13;176.35;;;46.55;;
58864;SDS011;45702;52.982;6.658;2022-12-10T03:53:40;179.73;;;47.85;;
58864;SDS011;45702;52.982;6.658;2022-12-10T03:56:06;183.45;;;48.92;;
58864;SDS011;45702;52.982;6.658;2022-12-10T03:58:32;185.95;;;48.65;;
58864;SDS011;45702;52.982;6.658;2022-12-10T04:00:58;191.80;;;48.55;;
58864;SDS011;45702;52.982;6.658;2022-12-10T04:03:24;193.38;;;50.50;;
58864;SDS011;45702;52.982;6.658;2022-12-10T04:05:50;182.27;;;48.08;;
58864;SDS011;45702;52.982;6.658;2022-12-10T04:08:16;184.35;;;48.55;;
58864;SDS011;45702;52.982;6.658;2022-12-10T04:10:42;191.32;;;50.13;;
58864;SDS011;45702;52.982;6.658;2022-12-10T04:13:08;204.75;;;49.90;;
58864;SDS011;45702;52.982;6.658;2022-12-10T04:15:56;192.82;;;48.85;;
58864;SDS011;45702;52.982;6.658;2022-12-10T04:18:41;187.15;;;48.13;;
58864;SDS011;45702;52.982;6.658;2022-12-10T04:21:07;182.80;;;47.60;;
58864;SDS011;45702;52.982;6.658;2022-12-10T04:23:51;189.70;;;46.50;;
58864;SDS011;45702;52.982;6.658;2022-12-10T04:26:36;187.65;;;48.40;;
58864;SDS011;45702;52.982;6.658;2022-12-10T04:29:24;186.05;;;48.28;;
58864;SDS011;45702;52.982;6.658;2022-12-10T04:31:51;190.10;;;49.10;;
58864;SDS011;45702;52.982;6.658;2022-12-10T04:34:17;192.95;;;50.08;;
58864;SDS011;45702;52.982;6.658;2022-12-10T04:36:43;201.25;;;48.75;;
58864;SDS011;45702;52.982;6.658;2022-12-10T04:39:09;196.95;;;46.85;;
58864;SDS011;45702;52.982;6.658;2022-12-10T04:41:39;184.32;;;47.40;;
58864;SDS011;45702;52.982;6.658;2022-12-10T04:44:06;205.00;;;49.88;;
58864;SDS011;45702;52.982;6.658;2022-12-10T04:46:32;203.25;;;50.40;;
58864;SDS011;45702;52.982;6.658;2022-12-10T04:48:58;198.48;;;48.83;;
58864;SDS011;45702;52.982;6.658;2022-12-10T04:51:24;181.88;;;43.80;;
58864;SDS011;45702;52.982;6.658;2022-12-10T04:53:50;201.55;;;49.60;;
58864;SDS011;45702;52.982;6.658;2022-12-10T04:56:16;186.32;;;48.03;;
58864;SDS011;45702;52.982;6.658;2022-12-10T04:58:42;195.25;;;47.80;;
58864;SDS011;45702;52.982;6.658;2022-12-10T05:01:09;198.88;;;49.90;;
58864;SDS011;45702;52.982;6.658;2022-12-10T05:03:36;184.63;;;46.55;;
58864;SDS011;45702;52.982;6.658;2022-12-10T05:06:03;198.05;;;51.58;;
58864;SDS011;45702;52.982;6.658;2022-12-10T05:08:29;182.00;;;50.78;;
58864;SDS011;45702;52.982;6.658;2022-12-10T05:10:59;189.07;;;48.05;;
58864;SDS011;45702;52.982;6.658;2022-12-10T05:13:26;188.40;;;48.58;;
58864;SDS011;45702;52.982;6.658;2022-12-10T05:15:52;189.43;;;48.67;;
58864;SDS011;45702;52.982;6.658;2022-12-10T05:18:18;193.18;;;49.70;;
58864;SDS011;45702;52.982;6.658;2022-12-10T05:20:44;190.90;;;47.67;;
58864;SDS011;45702;52.982;6.658;2022-12-10T05:23:10;199.25;;;48.83;;
58864;SDS011;45702;52.982;6.658;2022-12-10T05:26:01;181.27;;;47.83;;
58864;SDS011;45702;52.982;6.658;2022-12-10T05:28:28;201.02;;;49.15;;
58864;SDS011;45702;52.982;6.658;2022-12-10T05:30:55;191.40;;;47.50;;
58864;SDS011;45702;52.982;6.658;2022-12-10T05:33:21;202.43;;;52.90;;
58864;SDS011;45702;52.982;6.658;2022-12-10T05:35:54;186.55;;;48.95;;
58864;SDS011;45702;52.982;6.658;2022-12-10T05:38:21;192.20;;;48.75;;
58864;SDS011;45702;52.982;6.658;2022-12-10T05:40:47;190.80;;;48.33;;
58864;SDS011;45702;52.982;6.658;2022-12-10T05:43:13;189.23;;;49.15;;
58864;SDS011;45702;52.982;6.658;2022-12-10T05:45:39;181.25;;;47.80;;
58864;SDS011;45702;52.982;6.658;2022-12-10T05:48:05;188.95;;;48.15;;
58864;SDS011;45702;52.982;6.658;2022-12-10T05:50:32;202.85;;;50.75;;
58864;SDS011;45702;52.982;6.658;2022-12-10T05:52:58;193.30;;;48.35;;
58864;SDS011;45702;52.982;6.658;2022-12-10T05:55:24;191.20;;;50.38;;
58864;SDS011;45702;52.982;6.658;2022-12-10T05:57:52;189.05;;;48.22;;
58864;SDS011;45702;52.982;6.658;2022-12-10T06:00:18;189.18;;;48.50;;
58864;SDS011;45702;52.982;6.658;2022-12-10T06:02:45;196.27;;;49.80;;
58864;SDS011;45702;52.982;6.658;2022-12-10T06:05:11;202.35;;;50.33;;
58864;SDS011;45702;52.982;6.658;2022-12-10T06:07:37;204.32;;;51.72;;
58864;SDS011;45702;52.982;6.658;2022-12-10T06:10:04;188.25;;;50.35;;
58864;SDS011;45702;52.982;6.658;2022-12-10T06:12:30;187.48;;;48.25;;
58864;SDS011;45702;52.982;6.658;2022-12-10T06:14:56;198.65;;;49.60;;
58864;SDS011;45702;52.982;6.658;2022-12-10T06:17:22;203.30;;;50.42;;
58864;SDS011;45702;52.982;6.658;2022-12-10T06:19:48;188.85;;;48.15;;
58864;SDS011;45702;52.982;6.658;2022-12-10T06:22:14;197.80;;;51.35;;
58864;SDS011;45702;52.982;6.658;2022-12-10T06:24:40;200.35;;;47.45;;
58864;SDS011;45702;52.982;6.658;2022-12-10T06:27:06;195.18;;;49.88;;
58864;SDS011;45702;52.982;6.658;2022-12-10T06:29:32;189.88;;;49.20;;
58864;SDS011;45702;52.982;6.658;2022-12-10T06:31:58;202.35;;;49.58;;
58864;SDS011;45702;52.982;6.658;2022-12-10T06:34:24;204.25;;;51.35;;
58864;SDS011;45702;52.982;6.658;2022-12-10T06:36:50;198.60;;;50.95;;
58864;SDS011;45702;52.982;6.658;2022-12-10T06:39:16;188.15;;;46.38;;
58864;SDS011;45702;52.982;6.658;2022-12-10T06:41:42;207.75;;;50.83;;
58864;SDS011;45702;52.982;6.658;2022-12-10T06:44:10;210.83;;;51.33;;
58864;SDS011;45702;52.982;6.658;2022-12-10T06:46:36;204.30;;;51.45;;
58864;SDS011;45702;52.982;6.658;2022-12-10T06:49:03;201.98;;;51.67;;
58864;SDS011;45702;52.982;6.658;2022-12-10T06:51:30;181.73;;;47.58;;
58864;SDS011;45702;52.982;6.658;2022-12-10T06:53:56;203.15;;;49.88;;
58864;SDS011;45702;52.982;6.658;2022-12-10T06:56:22;204.90;;;50.80;;
58864;SDS011;45702;52.982;6.658;2022-12-10T06:58:48;208.52;;;52.35;;
58864;SDS011;45702;52.982;6.658;2022-12-10T07:01:24;207.65;;;52.17;;
58864;SDS011;45702;52.982;6.658;2022-12-10T07:03:51;215.40;;;53.03;;
58864;SDS011;45702;52.982;6.658;2022-12-10T07:06:18;201.15;;;50.92;;
58864;SDS011;45702;52.982;6.658;2022-12-10T07:08:44;209.98;;;51.83;;
58864;SDS011;45702;52.982;6.658;2022-12-10T07:11:11;193.10;;;48.58;;
58864;SDS011;45702;52.982;6.658;2022-12-10T07:13:38;210.57;;;52.45;;
58864;SDS011;45702;52.982;6.658;2022-12-10T07:16:11;211.02;;;52.63;;
58864;SDS011;45702;52.982;6.658;2022-12-10T07:18:37;201.10;;;51.92;;
58864;SDS011;45702;52.982;6.658;2022-12-10T07:21:17;198.60;;;50.88;;
58864;SDS011;45702;52.982;6.658;2022-12-10T07:23:44;202.23;;;51.08;;
58864;SDS011;45702;52.982;6.658;2022-12-10T07:26:10;189.98;;;49.17;;
58864;SDS011;45702;52.982;6.658;2022-12-10T07:28:36;196.98;;;51.33;;
58864;SDS011;45702;52.982;6.658;2022-12-10T07:31:03;205.60;;;52.10;;
58864;SDS011;45702;52.982;6.658;2022-12-10T07:33:29;193.10;;;51.50;;
58864;SDS011;45702;52.982;6.658;2022-12-10T07:35:55;211.52;;;52.78;;
58864;SDS011;45702;52.982;6.658;2022-12-10T07:38:22;216.73;;;52.05;;
58864;SDS011;45702;52.982;6.658;2022-12-10T07:40:48;200.77;;;52.72;;
58864;SDS011;45702;52.982;6.658;2022-12-10T07:43:14;199.45;;;51.33;;
58864;SDS011;45702;52.982;6.658;2022-12-10T07:45:41;200.50;;;51.20;;
58864;SDS011;45702;52.982;6.658;2022-12-10T07:48:07;224.68;;;55.15;;
58864;SDS011;45702;52.982;6.658;2022-12-10T07:50:33;204.13;;;52.70;;
58864;SDS011;45702;52.982;6.658;2022-12-10T07:52:59;229.55;;;53.33;;
58864;SDS011;45702;52.982;6.658;2022-12-10T07:55:25;211.45;;;52.55;;
58864;SDS011;45702;52.982;6.658;2022-12-10T07:57:51;196.85;;;50.00;;
58864;SDS011;45702;52.982;6.658;2022-12-10T08:00:17;208.32;;;52.22;;
58864;SDS011;45702;52.982;6.658;2022-12-10T08:02:43;212.48;;;54.00;;
58864;SDS011;45702;52.982;6.658;2022-12-10T08:05:09;185.75;;;45.65;;
58864;SDS011;45702;52.982;6.658;2022-12-10T08:07:35;208.32;;;52.70;;
58864;SDS011;45702;52.982;6.658;2022-12-10T08:10:02;209.63;;;54.33;;
58864;SDS011;45702;52.982;6.658;2022-12-10T08:12:28;218.75;;;54.22;;
58864;SDS011;45702;52.982;6.658;2022-12-10T08:14:54;207.43;;;54.13;;
58864;SDS011;45702;52.982;6.658;2022-12-10T08:17:20;206.68;;;54.28;;
58864;SDS011;45702;52.982;6.658;2022-12-10T08:19:46;208.93;;;52.45;;
58864;SDS011;45702;52.982;6.658;2022-12-10T08:22:12;216.63;;;52.70;;
58864;SDS011;45702;52.982;6.658;2022-12-10T08:24:38;226.00;;;53.85;;
58864;SDS011;45702;52.982;6.658;2022-12-10T08:27:04;230.35;;;55.38;;
58864;SDS011;45702;52.982;6.658;2022-12-10T08:29:30;210.80;;;48.75;;
58864;SDS011;45702;52.982;6.658;2022-12-10T08:31:56;209.20;;;54.00;;
58864;SDS011;45702;52.982;6.658;2022-12-10T08:34:22;166.55;;;42.65;;
58864;SDS011;45702;52.982;6.658;2022-12-10T08:36:48;208.43;;;53.97;;
58864;SDS011;45702;52.982;6.658;2022-12-10T08:39:14;220.57;;;53.88;;
58864;SDS011;45702;52.982;6.658;2022-12-10T08:41:42;214.40;;;53.60;;
58864;SDS011;45702;52.982;6.658;2022-12-10T08:44:08;215.98;;;52.20;;
58864;SDS011;45702;52.982;6.658;2022-12-10T08:46:34;194.07;;;48.95;;
58864;SDS011;45702;52.982;6.658;2022-12-10T08:49:00;212.18;;;55.63;;
58864;SDS011;45702;52.982;6.658;2022-12-10T08:51:26;226.93;;;55.75;;
58864;SDS011;45702;52.982;6.658;2022-12-10T08:53:53;222.07;;;53.55;;
58864;SDS011;45702;52.982;6.658;2022-12-10T08:56:19;218.85;;;54.00;;
58864;SDS011;45702;52.982;6.658;2022-12-10T08:58:45;229.38;;;56.28;;
58864;SDS011;45702;52.982;6.658;2022-12-10T09:01:15;217.85;;;54.45;;
58864;SDS011;45702;52.982;6.658;2022-12-10T09:03:42;192.68;;;47.08;;
58864;SDS011;45702;52.982;6.658;2022-12-10T09:06:11;217.15;;;54.47;;
58864;SDS011;45702;52.982;6.658;2022-12-10T09:08:37;208.73;;;53.97;;
58864;SDS011;45702;52.982;6.658;2022-12-10T09:11:11;242.18;;;64.90;;
58864;SDS011;45702;52.982;6.658;2022-12-10T09:13:38;205.15;;;53.05;;
58864;SDS011;45702;52.982;6.658;2022-12-10T09:16:04;203.20;;;52.25;;
58864;SDS011;45702;52.982;6.658;2022-12-10T09:18:30;213.50;;;53.17;;
58864;SDS011;45702;52.982;6.658;2022-12-10T09:20:56;223.70;;;56.92;;
58864;SDS011;45702;52.982;6.658;2022-12-10T09:23:22;202.68;;;50.67;;
58864;SDS011;45702;52.982;6.658;2022-12-10T09:25:49;219.10;;;56.60;;
58864;SDS011;45702;52.982;6.658;2022-12-10T09:28:15;211.95;;;54.05;;
58864;SDS011;45702;52.982;6.658;2022-12-10T09:30:41;222.20;;;56.17;;
58864;SDS011;45702;52.982;6.658;2022-12-10T09:33:07;211.18;;;55.08;;
58864;SDS011;45702;52.982;6.658;2022-12-10T09:35:33;219.43;;;55.00;;
58864;SDS011;45702;52.982;6.658;2022-12-10T09:37:59;160.93;;;42.55;;
58864;SDS011;45702;52.982;6.658;2022-12-10T09:40:36;204.15;;;52.55;;
58864;SDS011;45702;52.982;6.658;2022-12-10T09:43:09;196.65;;;49.30;;
58864;SDS011;45702;52.982;6.658;2022-12-10T09:45:40;187.43;;;51.13;;
58864;SDS011;45702;52.982;6.658;2022-12-10T09:50:38;210.10;;;53.17;;
58864;SDS011;45702;52.982;6.658;2022-12-10T09:53:12;205.95;;;54.65;;
58864;SDS011;45702;52.982;6.658;2022-12-10T09:55:42;198.77;;;52.60;;
58864;SDS011;45702;52.982;6.658;2022-12-10T09:58:19;197.23;;;53.58;;
58864;SDS011;45702;52.982;6.658;2022-12-10T10:00:59;197.97;;;51.57;;
58864;SDS011;45702;52.982;6.658;2022-12-10T10:03:27;196.85;;;51.67;;
58864;SDS011;45702;52.982;6.658;2022-12-10T10:05:58;200.88;;;52.53;;
58864;SDS011;45702;52.982;6.658;2022-12-10T10:08:31;194.52;;;51.03;;
58864;SDS011;45702;52.982;6.658;2022-12-10T10:10:58;201.25;;;52.90;;
58864;SDS011;45702;52.982;6.658;2022-12-10T10:15:50;209.90;;;54.47;;
58864;SDS011;45702;52.982;6.658;2022-12-10T10:20:46;204.73;;;51.83;;
58864;SDS011;45702;52.982;6.658;2022-12-10T10:23:12;212.57;;;53.58;;
58864;SDS011;45702;52.982;6.658;2022-12-10T10:25:39;210.18;;;54.55;;
58864;SDS011;45702;52.982;6.658;2022-12-10T10:28:07;204.02;;;53.65;;
58864;SDS011;45702;52.982;6.658;2022-12-10T10:30:35;189.80;;;51.75;;
58864;SDS011;45702;52.982;6.658;2022-12-10T10:33:02;202.80;;;54.58;;
58864;SDS011;45702;52.982;6.658;2022-12-10T10:35:34;185.95;;;51.40;;
58864;SDS011;45702;52.982;6.658;2022-12-10T10:38:07;185.38;;;51.08;;
58864;SDS011;45702;52.982;6.658;2022-12-10T10:40:40;181.13;;;50.00;;
58864;SDS011;45702;52.982;6.658;2022-12-10T10:43:08;178.07;;;49.47;;
58864;SDS011;45702;52.982;6.658;2022-12-10T10:45:43;169.30;;;47.72;;
58864;SDS011;45702;52.982;6.658;2022-12-10T10:48:18;181.95;;;50.22;;
58864;SDS011;45702;52.982;6.658;2022-12-10T10:50:46;158.60;;;45.33;;
58864;SDS011;45702;52.982;6.658;2022-12-10T10:53:47;176.07;;;50.40;;
58864;SDS011;45702;52.982;6.658;2022-12-10T10:56:07;160.95;;;43.42;;
58864;SDS011;45702;52.982;6.658;2022-12-10T10:58:35;171.18;;;49.97;;
58864;SDS011;45702;52.982;6.658;2022-12-10T11:01:06;184.50;;;50.38;;
58864;SDS011;45702;52.982;6.658;2022-12-10T11:03:33;190.80;;;51.50;;
58864;SDS011;45702;52.982;6.658;2022-12-10T11:06:00;185.77;;;50.63;;
58864;SDS011;45702;52.982;6.658;2022-12-10T11:08:30;176.48;;;47.58;;
58864;SDS011;45702;52.982;6.658;2022-12-10T11:11:10;187.32;;;50.30;;
58864;SDS011;45702;52.982;6.658;2022-12-10T11:13:37;183.73;;;51.45;;
58864;SDS011;45702;52.982;6.658;2022-12-10T11:16:11;197.45;;;50.80;;
58864;SDS011;45702;52.982;6.658;2022-12-10T11:18:39;185.25;;;52.92;;
58864;SDS011;45702;52.982;6.658;2022-12-10T11:21:24;187.07;;;52.17;;
58864;SDS011;45702;52.982;6.658;2022-12-10T11:23:55;202.07;;;52.35;;
58864;SDS011;45702;52.982;6.658;2022-12-10T11:31:59;190.35;;;50.90;;
58864;SDS011;45702;52.982;6.658;2022-12-10T11:45:10;167.05;;;47.60;;
58864;SDS011;45702;52.982;6.658;2022-12-10T11:50:40;170.90;;;47.50;;
58864;SDS011;45702;52.982;6.658;2022-12-10T12:03:34;168.02;;;44.85;;
58864;SDS011;45702;52.982;6.658;2022-12-10T12:13:50;153.55;;;44.65;;
58864;SDS011;45702;52.982;6.658;2022-12-10T12:16:21;162.52;;;44.95;;
58864;SDS011;45702;52.982;6.658;2022-12-10T12:18:51;169.07;;;45.58;;
58864;SDS011;45702;52.982;6.658;2022-12-10T12:21:20;146.65;;;43.35;;
58864;SDS011;45702;52.982;6.658;2022-12-10T12:31:31;166.77;;;45.90;;
58864;SDS011;45702;52.982;6.658;2022-12-10T12:34:01;168.52;;;44.00;;
58864;SDS011;45702;52.982;6.658;2022-12-10T12:39:03;155.07;;;42.75;;
58864;SDS011;45702;52.982;6.658;2022-12-10T12:44:29;157.40;;;43.50;;
58864;SDS011;45702;52.982;6.658;2022-12-10T12:46:58;182.93;;;46.80;;
58864;SDS011;45702;52.982;6.658;2022-12-10T12:49:32;185.57;;;47.30;;
58864;SDS011;45702;52.982;6.658;2022-12-10T12:52:10;175.32;;;48.20;;
58864;SDS011;45702;52.982;6.658;2022-12-10T12:54:42;190.55;;;50.00;;
58864;SDS011;45702;52.982;6.658;2022-12-10T13:00:04;184.57;;;50.90;;
58864;SDS011;45702;52.982;6.658;2022-12-10T13:02:41;188.95;;;47.30;;
58864;SDS011;45702;52.982;6.658;2022-12-10T13:05:16;166.98;;;44.58;;
58864;SDS011;45702;52.982;6.658;2022-12-10T13:07:44;178.63;;;46.53;;
58864;SDS011;45702;52.982;6.658;2022-12-10T13:12:47;157.80;;;47.08;;
58864;SDS011;45702;52.982;6.658;2022-12-10T13:15:21;171.57;;;48.30;;
58864;SDS011;45702;52.982;6.658;2022-12-10T13:18:00;159.48;;;44.03;;
58864;SDS011;45702;52.982;6.658;2022-12-10T13:23:02;160.85;;;43.97;;
58864;SDS011;45702;52.982;6.658;2022-12-10T13:25:39;164.90;;;44.20;;
58864;SDS011;45702;52.982;6.658;2022-12-10T13:36:21;165.43;;;43.58;;
58864;SDS011;45702;52.982;6.658;2022-12-10T13:38:57;162.73;;;41.08;;
58864;SDS011;45702;52.982;6.658;2022-12-10T13:41:23;171.40;;;42.22;;
58864;SDS011;45702;52.982;6.658;2022-12-10T13:46:54;168.88;;;42.40;;
58864;SDS011;45702;52.982;6.658;2022-12-10T13:49:22;180.07;;;44.70;;
58864;SDS011;45702;52.982;6.658;2022-12-10T13:54:33;198.25;;;47.15;;
58864;SDS011;45702;52.982;6.658;2022-12-10T13:59:51;178.93;;;44.58;;
58864;SDS011;45702;52.982;6.658;2022-12-10T14:05:23;195.52;;;45.95;;
58864;SDS011;45702;52.982;6.658;2022-12-10T14:07:54;186.35;;;42.67;;
58864;SDS011;45702;52.982;6.658;2022-12-10T14:10:24;205.50;;;46.25;;
58864;SDS011;45702;52.982;6.658;2022-12-10T14:12:55;218.07;;;49.42;;
58864;SDS011;45702;52.982;6.658;2022-12-10T14:15:25;218.82;;;48.67;;
58864;SDS011;45702;52.982;6.658;2022-12-10T14:18:02;236.73;;;49.40;;
58864;SDS011;45702;52.982;6.658;2022-12-10T14:20:39;226.82;;;48.97;;
58864;SDS011;45702;52.982;6.658;2022-12-10T14:25:51;214.30;;;46.95;;
58864;SDS011;45702;52.982;6.658;2022-12-10T14:28:17;251.80;;;49.10;;
58864;SDS011;45702;52.982;6.658;2022-12-10T14:30:45;256.38;;;52.75;;
58864;SDS011;45702;52.982;6.658;2022-12-10T14:33:12;242.90;;;50.95;;
58864;SDS011;45702;52.982;6.658;2022-12-10T14:35:40;265.85;;;52.88;;
58864;SDS011;45702;52.982;6.658;2022-12-10T14:38:12;271.98;;;55.08;;
58864;SDS011;45702;52.982;6.658;2022-12-10T14:40:42;265.05;;;52.85;;
58864;SDS011;45702;52.982;6.658;2022-12-10T14:43:11;263.33;;;49.45;;
58864;SDS011;45702;52.982;6.658;2022-12-10T14:45:44;258.40;;;50.53;;
58864;SDS011;45702;52.982;6.658;2022-12-10T14:48:11;286.13;;;54.15;;
58864;SDS011;45702;52.982;6.658;2022-12-10T14:50:38;304.83;;;56.75;;
58864;SDS011;45702;52.982;6.658;2022-12-10T14:53:05;285.30;;;53.88;;
58864;SDS011;45702;52.982;6.658;2022-12-10T14:55:36;295.77;;;56.55;;
58864;SDS011;45702;52.982;6.658;2022-12-10T14:58:03;304.33;;;57.35;;
58864;SDS011;45702;52.982;6.658;2022-12-10T15:00:31;293.73;;;53.60;;
58864;SDS011;45702;52.982;6.658;2022-12-10T15:03:01;288.92;;;58.22;;
58864;SDS011;45702;52.982;6.658;2022-12-10T15:05:28;302.13;;;55.80;;
58864;SDS011;45702;52.982;6.658;2022-12-10T15:08:05;308.90;;;56.87;;
58864;SDS011;45702;52.982;6.658;2022-12-10T15:12:58;303.80;;;54.70;;
58864;SDS011;45702;52.982;6.658;2022-12-10T15:15:27;304.02;;;54.47;;
58864;SDS011;45702;52.982;6.658;2022-12-10T15:18:09;296.50;;;55.03;;
58864;SDS011;45702;52.982;6.658;2022-12-10T15:23:35;286.38;;;53.53;;
58864;SDS011;45702;52.982;6.658;2022-12-10T15:26:17;309.15;;;54.38;;
58864;SDS011;45702;52.982;6.658;2022-12-10T15:31:41;307.42;;;54.15;;
58864;SDS011;45702;52.982;6.658;2022-12-10T15:34:08;278.42;;;54.63;;
58864;SDS011;45702;52.982;6.658;2022-12-10T15:36:39;297.15;;;54.28;;
58864;SDS011;45702;52.982;6.658;2022-12-10T15:41:45;292.00;;;53.78;;
58864;SDS011;45702;52.982;6.658;2022-12-10T15:44:54;311.88;;;55.65;;
58864;SDS011;45702;52.982;6.658;2022-12-10T15:47:17;316.60;;;55.10;;
58864;SDS011;45702;52.982;6.658;2022-12-10T15:49:43;286.77;;;54.90;;
58864;SDS011;45702;52.982;6.658;2022-12-10T15:52:14;289.35;;;56.03;;
58864;SDS011;45702;52.982;6.658;2022-12-10T15:54:41;299.85;;;55.05;;
58864;SDS011;45702;52.982;6.658;2022-12-10T15:57:15;347.23;;;59.70;;
58864;SDS011;45702;52.982;6.658;2022-12-10T15:59:41;288.38;;;51.25;;
58864;SDS011;45702;52.982;6.658;2022-12-10T16:04:52;270.33;;;48.67;;
58864;SDS011;45702;52.982;6.658;2022-12-10T16:07:19;291.92;;;51.90;;
58864;SDS011;45702;52.982;6.658;2022-12-10T16:09:45;282.67;;;51.63;;
58864;SDS011;45702;52.982;6.658;2022-12-10T16:12:12;300.55;;;54.30;;